sensor_id;sensor_type;location;lat;lon;timestamp;pressure;altitude;pressure_sealevel;temperature;humidity
42603;BME280;28233;55.748;48.752;2023-04-23T00:01:24;98589.59;;;8.47;65.97
42603;BME280;28233;55.748;48.752;2023-04-23T00:03:30;98584.44;;;8.45;65.35
42603;BME280;28233;55.748;48.752;2023-04-23T00:05:38;98576.53;;;8.44;65.10
42603;BME280;28233;55.748;48.752;2023-04-23T00:07:41;98593.31;;;8.42;65.09
42603;BME280;28233;55.748;48.752;2023-04-23T00:09:43;98577.06;;;8.37;65.17
42603;BME280;28233;55.748;48.752;2023-04-23T00:11:47;98587.53;;;8.35;64.82
42603;BME280;28233;55.748;48.752;2023-04-23T00:13:51;98590.47;;;8.30;64.62
42603;BME280;28233;55.748;48.752;2023-04-23T00:15:54;98589.97;;;8.28;64.94
42603;BME280;28233;55.748;48.752;2023-04-23T00:17:57;98604.78;;;8.27;65.11
42603;BME280;28233;55.748;48.752;2023-04-23T00:19:59;98604.78;;;8.27;65.30
42603;BME280;28233;55.748;48.752;2023-04-23T00:22:03;98606.25;;;8.24;65.73
42603;BME280;28233;55.748;48.752;2023-04-23T00:24:06;98604.34;;;8.16;65.96
42603;BME280;28233;55.748;48.752;2023-04-23T00:26:09;98618.53;;;8.10;67.01
42603;BME280;28233;55.748;48.752;2023-04-23T00:28:11;98616.31;;;8.03;67.33
42603;BME280;28233;55.748;48.752;2023-04-23T00:30:14;98626.16;;;7.95;67.91
42603;BME280;28233;55.748;48.752;2023-04-23T00:32:18;98618.75;;;7.87;68.89
42603;BME280;28233;55.748;48.752;2023-04-23T00:34:20;98621.84;;;7.77;69.67
42603;BME280;28233;55.748;48.752;2023-04-23T00:36:23;98625.06;;;7.70;70.04
42603;BME280;28233;55.748;48.752;2023-04-23T00:38:26;98629.56;;;7.66;69.78
42603;BME280;28233;55.748;48.752;2023-04-23T00:40:29;98621.25;;;7.62;70.26
42603;BME280;28233;55.748;48.752;2023-04-23T00:42:32;98631.53;;;7.57;70.31
42603;BME280;28233;55.748;48.752;2023-04-23T00:44:34;98632.97;;;7.54;70.56
42603;BME280;28233;55.748;48.752;2023-04-23T00:46:38;98637.50;;;7.50;70.67
42603;BME280;28233;55.748;48.752;2023-04-23T00:48:41;98631.06;;;7.46;70.88
42603;BME280;28233;55.748;48.752;2023-04-23T00:50:45;98638.59;;;7.40;70.98
42603;BME280;28233;55.748;48.752;2023-04-23T00:52:48;98637.31;;;7.38;70.83
42603;BME280;28233;55.748;48.752;2023-04-23T00:54:50;98636.84;;;7.36;71.07
42603;BME280;28233;55.748;48.752;2023-04-23T00:56:54;98629.78;;;7.35;70.14
42603;BME280;28233;55.748;48.752;2023-04-23T00:58:56;98629.78;;;7.35;69.54
42603;BME280;28233;55.748;48.752;2023-04-23T01:00:59;98632.50;;;7.35;68.07
42603;BME280;28233;55.748;48.752;2023-04-23T01:03:04;98633.31;;;7.35;67.15
42603;BME280;28233;55.748;48.752;2023-04-23T01:05:08;98640.22;;;7.41;66.43
42603;BME280;28233;55.748;48.752;2023-04-23T01:07:12;98642.78;;;7.47;66.58
42603;BME280;28233;55.748;48.752;2023-04-23T01:09:15;98644.38;;;7.48;67.37
42603;BME280;28233;55.748;48.752;2023-04-23T01:11:21;98643.09;;;7.45;68.39
42603;BME280;28233;55.748;48.752;2023-04-23T01:13:24;98643.28;;;7.40;68.41
42603;BME280;28233;55.748;48.752;2023-04-23T01:15:31;98648.59;;;7.36;68.71
42603;BME280;28233;55.748;48.752;2023-04-23T01:17:33;98648.41;;;7.33;69.07
42603;BME280;28233;55.748;48.752;2023-04-23T01:19:37;98653.72;;;7.29;69.50
42603;BME280;28233;55.748;48.752;2023-04-23T01:21:40;98655.81;;;7.24;69.64
42603;BME280;28233;55.748;48.752;2023-04-23T01:23:43;98654.84;;;7.19;70.66
42603;BME280;28233;55.748;48.752;2023-04-23T01:25:46;98651.66;;;7.17;71.03
42603;BME280;28233;55.748;48.752;2023-04-23T01:27:49;98655.34;;;7.13;71.27
42603;BME280;28233;55.748;48.752;2023-04-23T01:29:51;98662.25;;;7.10;71.51
42603;BME280;28233;55.748;48.752;2023-04-23T01:31:55;98666.72;;;7.06;71.81
42603;BME280;28233;55.748;48.752;2023-04-23T01:33:59;98667.69;;;7.02;72.19
42603;BME280;28233;55.748;48.752;2023-04-23T01:36:02;98664.28;;;6.96;72.27
42603;BME280;28233;55.748;48.752;2023-04-23T01:38:06;98668.94;;;6.95;72.73
42603;BME280;28233;55.748;48.752;2023-04-23T01:40:10;98666.69;;;6.89;72.87
42603;BME280;28233;55.748;48.752;2023-04-23T01:42:13;98675.69;;;6.89;72.76
42603;BME280;28233;55.748;48.752;2023-04-23T01:44:16;98672.47;;;6.87;73.24
42603;BME280;28233;55.748;48.752;2023-04-23T01:46:19;98668.75;;;6.83;73.34
42603;BME280;28233;55.748;48.752;2023-04-23T01:48:23;98678.88;;;6.83;73.37
42603;BME280;28233;55.748;48.752;2023-04-23T01:50:27;98681.13;;;6.81;73.24
42603;BME280;28233;55.748;48.752;2023-04-23T01:52:31;98677.09;;;6.78;73.39
42603;BME280;28233;55.748;48.752;2023-04-23T01:54:34;98677.09;;;6.78;73.05
42603;BME280;28233;55.748;48.752;2023-04-23T01:56:40;98681.13;;;6.81;72.45
42603;BME280;28233;55.748;48.752;2023-04-23T01:58:43;98680.00;;;6.82;71.73
42603;BME280;28233;55.748;48.752;2023-04-23T02:00:45;98680.47;;;6.84;71.63
42603;BME280;28233;55.748;48.752;2023-04-23T02:02:48;98686.44;;;6.86;71.16
42603;BME280;28233;55.748;48.752;2023-04-23T02:04:54;98683.06;;;6.89;70.88
42603;BME280;28233;55.748;48.752;2023-04-23T02:06:58;98681.00;;;6.94;68.94
42603;BME280;28233;55.748;48.752;2023-04-23T02:09:00;98675.06;;;7.01;67.18
42603;BME280;28233;55.748;48.752;2023-04-23T02:11:04;98684.72;;;7.07;66.10
42603;BME280;28233;55.748;48.752;2023-04-23T02:13:08;98682.00;;;7.16;65.11
42603;BME280;28233;55.748;48.752;2023-04-23T02:15:11;98684.56;;;7.21;65.15
42603;BME280;28233;55.748;48.752;2023-04-23T02:17:34;98685.56;;;7.25;64.93
42603;BME280;28233;55.748;48.752;2023-04-23T02:19:37;98683.63;;;7.26;64.95
42603;BME280;28233;55.748;48.752;2023-04-23T02:21:39;98693.28;;;7.32;64.43
42603;BME280;28233;55.748;48.752;2023-04-23T02:23:42;98697.44;;;7.38;62.72
42603;BME280;28233;55.748;48.752;2023-04-23T02:25:45;98700.00;;;7.43;63.37
42603;BME280;28233;55.748;48.752;2023-04-23T02:27:48;98705.34;;;7.48;63.73
42603;BME280;28233;55.748;48.752;2023-04-23T02:29:50;98707.44;;;7.51;64.25
42603;BME280;28233;55.748;48.752;2023-04-23T02:31:53;98705.00;;;7.50;63.90
42603;BME280;28233;55.748;48.752;2023-04-23T02:33:56;98703.56;;;7.52;63.36
42603;BME280;28233;55.748;48.752;2023-04-23T02:35:59;98708.72;;;7.54;63.56
42603;BME280;28233;55.748;48.752;2023-04-23T02:38:02;98703.41;;;7.57;63.68
42603;BME280;28233;55.748;48.752;2023-04-23T02:40:05;98717.22;;;7.61;62.86
42603;BME280;28233;55.748;48.752;2023-04-23T02:42:08;98716.28;;;7.66;63.27
42603;BME280;28233;55.748;48.752;2023-04-23T02:44:11;98718.69;;;7.67;62.46
42603;BME280;28233;55.748;48.752;2023-04-23T02:46:13;98718.34;;;7.69;62.04
42603;BME280;28233;55.748;48.752;2023-04-23T02:48:16;98722.38;;;7.71;62.78
42603;BME280;28233;55.748;48.752;2023-04-23T02:50:19;98719.81;;;7.75;62.35
42603;BME280;28233;55.748;48.752;2023-04-23T02:52:22;98720.28;;;7.77;61.29
42603;BME280;28233;55.748;48.752;2023-04-23T02:54:24;98728.31;;;7.82;61.29
42603;BME280;28233;55.748;48.752;2023-04-23T02:56:27;98725.44;;;7.87;60.98
42603;BME280;28233;55.748;48.752;2023-04-23T02:58:30;98733.00;;;7.90;61.38
42603;BME280;28233;55.748;48.752;2023-04-23T03:00:33;98734.28;;;7.93;61.13
42603;BME280;28233;55.748;48.752;2023-04-23T03:02:36;98757.09;;;7.97;61.00
42603;BME280;28233;55.748;48.752;2023-04-23T03:04:38;98755.34;;;7.92;62.95
42603;BME280;28233;55.748;48.752;2023-04-23T03:06:41;98756.78;;;7.90;63.12
42603;BME280;28233;55.748;48.752;2023-04-23T03:08:44;98754.22;;;7.84;63.20
42603;BME280;28233;55.748;48.752;2023-04-23T03:10:47;98763.09;;;7.81;63.56
42603;BME280;28233;55.748;48.752;2023-04-23T03:12:50;98777.88;;;7.80;63.47
42603;BME280;28233;55.748;48.752;2023-04-23T03:14:52;98766.13;;;7.80;63.39
42603;BME280;28233;55.748;48.752;2023-04-23T03:16:55;98767.75;;;7.81;61.74
42603;BME280;28233;55.748;48.752;2023-04-23T03:18:58;98766.31;;;7.83;61.20
42603;BME280;28233;55.748;48.752;2023-04-23T03:21:01;98766.78;;;7.86;61.13
42603;BME280;28233;55.748;48.752;2023-04-23T03:23:03;98763.41;;;7.89;61.05
42603;BME280;28233;55.748;48.752;2023-04-23T03:25:09;98784.47;;;7.97;61.09
42603;BME280;28233;55.748;48.752;2023-04-23T03:27:12;98782.69;;;8.01;60.19
42603;BME280;28233;55.748;48.752;2023-04-23T03:29:15;98789.16;;;8.05;59.46
42603;BME280;28233;55.748;48.752;2023-04-23T03:31:17;98787.69;;;8.08;59.24
42603;BME280;28233;55.748;48.752;2023-04-23T03:33:20;98789.28;;;8.09;59.17
42603;BME280;28233;55.748;48.752;2023-04-23T03:35:23;98795.59;;;8.09;58.79
42603;BME280;28233;55.748;48.752;2023-04-23T03:37:27;98803.78;;;8.09;58.82
42603;BME280;28233;55.748;48.752;2023-04-23T03:39:30;98803.44;;;8.11;58.01
42603;BME280;28233;55.748;48.752;2023-04-23T03:41:32;98801.38;;;8.16;57.05
42603;BME280;28233;55.748;48.752;2023-04-23T03:43:35;98802.31;;;8.20;56.39
42603;BME280;28233;55.748;48.752;2023-04-23T03:45:38;98807.66;;;8.25;55.06
42603;BME280;28233;55.748;48.752;2023-04-23T03:47:41;98806.69;;;8.30;54.86
42603;BME280;28233;55.748;48.752;2023-04-23T03:49:44;98810.34;;;8.34;53.43
42603;BME280;28233;55.748;48.752;2023-04-23T03:51:47;98813.78;;;8.40;54.44
42603;BME280;28233;55.748;48.752;2023-04-23T03:53:50;98816.81;;;8.47;53.83
42603;BME280;28233;55.748;48.752;2023-04-23T03:55:53;98816.78;;;8.56;53.09
42603;BME280;28233;55.748;48.752;2023-04-23T03:57:56;98808.88;;;8.63;52.61
42603;BME280;28233;55.748;48.752;2023-04-23T03:59:58;98812.88;;;8.74;52.80
42603;BME280;28233;55.748;48.752;2023-04-23T04:02:04;98806.59;;;8.82;52.25
42603;BME280;28233;55.748;48.752;2023-04-23T04:04:07;98816.38;;;8.92;51.87
42603;BME280;28233;55.748;48.752;2023-04-23T04:06:10;98817.47;;;9.00;51.76
42603;BME280;28233;55.748;48.752;2023-04-23T04:08:13;98815.50;;;9.09;50.92
42603;BME280;28233;55.748;48.752;2023-04-23T04:10:15;98815.94;;;9.20;51.01
42603;BME280;28233;55.748;48.752;2023-04-23T04:12:18;98819.09;;;9.30;50.78
42603;BME280;28233;55.748;48.752;2023-04-23T04:14:21;98819.88;;;9.40;50.78
42603;BME280;28233;55.748;48.752;2023-04-23T04:16:24;98816.28;;;9.48;50.04
42603;BME280;28233;55.748;48.752;2023-04-23T04:18:27;98815.41;;;9.56;49.78
42603;BME280;28233;55.748;48.752;2023-04-23T04:20:29;98814.22;;;9.66;49.03
42603;BME280;28233;55.748;48.752;2023-04-23T04:22:32;98823.66;;;9.77;48.51
42603;BME280;28233;55.748;48.752;2023-04-23T04:24:35;98819.03;;;9.90;47.55
42603;BME280;28233;55.748;48.752;2023-04-23T04:26:39;98825.75;;;10.01;46.41
42603;BME280;28233;55.748;48.752;2023-04-23T04:28:42;98825.47;;;10.15;46.62
42603;BME280;28233;55.748;48.752;2023-04-23T04:30:46;98825.06;;;10.25;46.59
42603;BME280;28233;55.748;48.752;2023-04-23T04:32:51;98820.78;;;10.36;46.59
42603;BME280;28233;55.748;48.752;2023-04-23T04:34:54;98833.78;;;10.48;46.38
42603;BME280;28233;55.748;48.752;2023-04-23T04:36:56;98833.38;;;10.58;45.59
42603;BME280;28233;55.748;48.752;2023-04-23T04:38:59;98834.66;;;10.73;44.91
42603;BME280;28233;55.748;48.752;2023-04-23T04:41:02;98839.38;;;10.85;44.78
42603;BME280;28233;55.748;48.752;2023-04-23T04:43:05;98841.34;;;10.97;44.18
42603;BME280;28233;55.748;48.752;2023-04-23T04:45:08;98844.13;;;11.09;43.76
42603;BME280;28233;55.748;48.752;2023-04-23T04:47:11;98842.88;;;11.19;42.96
42603;BME280;28233;55.748;48.752;2023-04-23T04:49:14;98847.56;;;11.31;42.74
42603;BME280;28233;55.748;48.752;2023-04-23T04:51:21;98849.41;;;11.39;41.11
42603;BME280;28233;55.748;48.752;2023-04-23T04:53:24;98846.19;;;11.49;40.57
42603;BME280;28233;55.748;48.752;2023-04-23T04:55:26;98848.84;;;11.58;40.79
42603;BME280;28233;55.748;48.752;2023-04-23T04:57:29;98850.19;;;11.64;40.69
42603;BME280;28233;55.748;48.752;2023-04-23T04:59:31;98858.34;;;11.73;40.26
42603;BME280;28233;55.748;48.752;2023-04-23T05:01:34;98862.94;;;11.81;40.62
42603;BME280;28233;55.748;48.752;2023-04-23T05:03:38;98861.06;;;11.85;40.25
42603;BME280;28233;55.748;48.752;2023-04-23T05:05:41;98856.50;;;11.89;40.15
42603;BME280;28233;55.748;48.752;2023-04-23T05:07:45;98861.31;;;11.92;40.08
42603;BME280;28233;55.748;48.752;2023-04-23T05:09:48;98874.03;;;11.97;40.70
42603;BME280;28233;55.748;48.752;2023-04-23T05:11:51;98868.13;;;11.95;41.14
42603;BME280;28233;55.748;48.752;2023-04-23T05:13:55;98861.56;;;11.99;42.37
42603;BME280;28233;55.748;48.752;2023-04-23T05:15:58;98877.25;;;11.99;43.05
42603;BME280;28233;55.748;48.752;2023-04-23T05:18:04;98875.66;;;11.98;42.40
42603;BME280;28233;55.748;48.752;2023-04-23T05:20:08;98882.53;;;12.04;42.82
42603;BME280;28233;55.748;48.752;2023-04-23T05:22:14;98878.06;;;12.12;42.20
42603;BME280;28233;55.748;48.752;2023-04-23T05:24:19;98882.06;;;12.14;41.71
42603;BME280;28233;55.748;48.752;2023-04-23T05:26:22;98896.50;;;12.23;41.37
42603;BME280;28233;55.748;48.752;2023-04-23T05:28:24;98888.69;;;12.25;40.16
42603;BME280;28233;55.748;48.752;2023-04-23T05:30:27;98895.09;;;12.30;39.71
42603;BME280;28233;55.748;48.752;2023-04-23T05:32:30;98899.94;;;12.33;38.76
42603;BME280;28233;55.748;48.752;2023-04-23T05:34:33;98892.00;;;12.31;39.37
42603;BME280;28233;55.748;48.752;2023-04-23T05:36:36;98898.75;;;12.34;39.09
42603;BME280;28233;55.748;48.752;2023-04-23T05:38:38;98907.22;;;12.41;39.19
42603;BME280;28233;55.748;48.752;2023-04-23T05:40:41;98904.59;;;12.44;39.01
42603;BME280;28233;55.748;48.752;2023-04-23T05:42:44;98908.22;;;12.48;38.69
42603;BME280;28233;55.748;48.752;2023-04-23T05:44:47;98911.56;;;12.54;38.15
42603;BME280;28233;55.748;48.752;2023-04-23T05:46:49;98912.91;;;12.60;38.76
42603;BME280;28233;55.748;48.752;2023-04-23T05:48:52;98917.22;;;12.74;38.84
42603;BME280;28233;55.748;48.752;2023-04-23T05:50:55;98908.69;;;12.79;38.85
42603;BME280;28233;55.748;48.752;2023-04-23T05:52:57;98920.03;;;12.89;38.27
42603;BME280;28233;55.748;48.752;2023-04-23T05:55:00;98917.72;;;12.92;38.05
42603;BME280;28233;55.748;48.752;2023-04-23T05:57:07;98926.53;;;12.97;38.16
42603;BME280;28233;55.748;48.752;2023-04-23T05:59:10;98928.25;;;13.02;37.81
42603;BME280;28233;55.748;48.752;2023-04-23T06:01:13;98925.94;;;13.04;37.46
42603;BME280;28233;55.748;48.752;2023-04-23T06:03:16;98931.91;;;13.06;37.36
42603;BME280;28233;55.748;48.752;2023-04-23T06:05:20;98925.22;;;13.07;37.94
42603;BME280;28233;55.748;48.752;2023-04-23T06:07:23;98926.66;;;13.17;38.14
42603;BME280;28233;55.748;48.752;2023-04-23T06:09:25;98932.03;;;13.25;37.96
42603;BME280;28233;55.748;48.752;2023-04-23T06:11:28;98935.00;;;13.32;37.58
42603;BME280;28233;55.748;48.752;2023-04-23T06:13:33;98933.22;;;13.40;37.56
42603;BME280;28233;55.748;48.752;2023-04-23T06:15:44;98928.72;;;13.48;37.51
42603;BME280;28233;55.748;48.752;2023-04-23T06:17:47;98939.94;;;13.55;37.15
42603;BME280;28233;55.748;48.752;2023-04-23T06:19:50;98936.09;;;13.60;37.38
42603;BME280;28233;55.748;48.752;2023-04-23T06:21:52;98935.72;;;13.61;36.93
42603;BME280;28233;55.748;48.752;2023-04-23T06:23:55;98940.44;;;13.61;36.97
42603;BME280;28233;55.748;48.752;2023-04-23T06:25:58;98949.47;;;13.73;36.52
42603;BME280;28233;55.748;48.752;2023-04-23T06:28:01;98944.91;;;13.81;36.39
42603;BME280;28233;55.748;48.752;2023-04-23T06:30:05;98945.81;;;13.85;36.11
42603;BME280;28233;55.748;48.752;2023-04-23T06:32:07;98949.34;;;13.86;35.95
42603;BME280;28233;55.748;48.752;2023-04-23T06:34:10;98946.31;;;13.91;35.96
42603;BME280;28233;55.748;48.752;2023-04-23T06:36:13;98947.22;;;13.95;35.98
42603;BME280;28233;55.748;48.752;2023-04-23T06:38:16;98948.44;;;13.98;35.87
42603;BME280;28233;55.748;48.752;2023-04-23T06:40:20;98949.50;;;14.09;35.73
42603;BME280;28233;55.748;48.752;2023-04-23T06:42:22;98949.69;;;14.16;35.75
42603;BME280;28233;55.748;48.752;2023-04-23T06:44:25;98946.19;;;14.19;35.50
42603;BME280;28233;55.748;48.752;2023-04-23T06:46:28;98958.97;;;14.27;35.35
42603;BME280;28233;55.748;48.752;2023-04-23T06:48:31;98943.75;;;14.33;35.04
42603;BME280;28233;55.748;48.752;2023-04-23T06:50:33;98951.75;;;14.38;35.46
42603;BME280;28233;55.748;48.752;2023-04-23T06:52:36;98954.75;;;14.49;35.30
42603;BME280;28233;55.748;48.752;2023-04-23T06:54:38;98954.59;;;14.58;34.64
42603;BME280;28233;55.748;48.752;2023-04-23T06:56:41;98953.13;;;14.64;33.95
42603;BME280;28233;55.748;48.752;2023-04-23T06:58:44;98952.81;;;14.69;33.83
42603;BME280;28233;55.748;48.752;2023-04-23T07:00:47;98956.31;;;14.66;34.12
42603;BME280;28233;55.748;48.752;2023-04-23T07:02:50;98948.91;;;14.70;34.29
42603;BME280;28233;55.748;48.752;2023-04-23T07:04:53;98957.34;;;14.77;33.55
42603;BME280;28233;55.748;48.752;2023-04-23T07:06:56;98955.28;;;14.74;32.72
42603;BME280;28233;55.748;48.752;2023-04-23T07:08:58;98957.50;;;14.85;33.01
42603;BME280;28233;55.748;48.752;2023-04-23T07:11:01;98956.09;;;14.94;32.59
42603;BME280;28233;55.748;48.752;2023-04-23T07:13:04;98954.28;;;15.02;32.21
42603;BME280;28233;55.748;48.752;2023-04-23T07:15:07;98959.91;;;15.06;31.38
42603;BME280;28233;55.748;48.752;2023-04-23T07:17:10;98959.50;;;15.07;31.19
42603;BME280;28233;55.748;48.752;2023-04-23T07:19:13;98961.25;;;15.15;30.85
42603;BME280;28233;55.748;48.752;2023-04-23T07:21:15;98973.25;;;15.23;30.45
42603;BME280;28233;55.748;48.752;2023-04-23T07:23:18;98961.88;;;15.28;31.22
42603;BME280;28233;55.748;48.752;2023-04-23T07:25:21;98973.47;;;15.34;30.79
42603;BME280;28233;55.748;48.752;2023-04-23T07:27:25;98958.31;;;15.28;30.29
42603;BME280;28233;55.748;48.752;2023-04-23T07:29:28;98982.56;;;15.34;30.34
42603;BME280;28233;55.748;48.752;2023-04-23T07:31:31;98972.38;;;15.38;29.86
42603;BME280;28233;55.748;48.752;2023-04-23T07:33:34;98965.34;;;15.44;29.80
42603;BME280;28233;55.748;48.752;2023-04-23T07:35:38;98970.22;;;15.51;30.09
42603;BME280;28233;55.748;48.752;2023-04-23T07:37:41;98973.91;;;15.59;29.66
42603;BME280;28233;55.748;48.752;2023-04-23T07:39:43;98970.47;;;15.65;29.50
42603;BME280;28233;55.748;48.752;2023-04-23T07:41:46;98972.97;;;15.71;29.65
42603;BME280;28233;55.748;48.752;2023-04-23T07:43:49;98972.97;;;15.71;29.30
42603;BME280;28233;55.748;48.752;2023-04-23T07:45:52;98972.81;;;15.63;29.54
42603;BME280;28233;55.748;48.752;2023-04-23T07:47:55;98973.63;;;15.64;28.86
42603;BME280;28233;55.748;48.752;2023-04-23T07:49:57;98976.59;;;15.75;29.22
42603;BME280;28233;55.748;48.752;2023-04-23T07:52:00;98980.28;;;15.82;29.40
42603;BME280;28233;55.748;48.752;2023-04-23T07:54:03;98981.25;;;15.94;29.35
42603;BME280;28233;55.748;48.752;2023-04-23T07:56:06;98975.47;;;16.02;29.18
42603;BME280;28233;55.748;48.752;2023-04-23T07:58:08;98974.78;;;16.09;28.56
42603;BME280;28233;55.748;48.752;2023-04-23T08:00:11;98982.03;;;16.17;28.47
42603;BME280;28233;55.748;48.752;2023-04-23T08:02:16;98968.75;;;16.03;28.55
42603;BME280;28233;55.748;48.752;2023-04-23T08:04:19;98983.22;;;16.16;28.58
42603;BME280;28233;55.748;48.752;2023-04-23T08:06:23;98983.91;;;16.10;28.50
42603;BME280;28233;55.748;48.752;2023-04-23T08:08:25;98982.78;;;16.14;29.01
42603;BME280;28233;55.748;48.752;2023-04-23T08:10:28;98982.94;;;16.25;29.04
42603;BME280;28233;55.748;48.752;2023-04-23T08:12:31;98996.53;;;16.34;28.96
42603;BME280;28233;55.748;48.752;2023-04-23T08:14:37;98987.78;;;16.32;29.17
42603;BME280;28233;55.748;48.752;2023-04-23T08:16:39;98994.16;;;16.32;28.68
42603;BME280;28233;55.748;48.752;2023-04-23T08:18:42;98985.22;;;16.19;29.24
42603;BME280;28233;55.748;48.752;2023-04-23T08:20:59;98997.72;;;16.33;28.88
42603;BME280;28233;55.748;48.752;2023-04-23T08:23:03;98987.50;;;16.37;28.32
42603;BME280;28233;55.748;48.752;2023-04-23T08:25:06;98997.56;;;16.48;28.16
42603;BME280;28233;55.748;48.752;2023-04-23T08:27:09;98996.41;;;16.53;27.80
42603;BME280;28233;55.748;48.752;2023-04-23T08:29:12;98987.81;;;16.62;27.54
42603;BME280;28233;55.748;48.752;2023-04-23T08:31:15;98977.94;;;16.61;27.26
42603;BME280;28233;55.748;48.752;2023-04-23T08:33:27;98991.38;;;16.59;27.33
42603;BME280;28233;55.748;48.752;2023-04-23T08:35:30;98979.19;;;16.67;27.06
42603;BME280;28233;55.748;48.752;2023-04-23T08:37:33;98971.47;;;16.80;27.53
42603;BME280;28233;55.748;48.752;2023-04-23T08:39:36;98991.41;;;16.89;26.89
42603;BME280;28233;55.748;48.752;2023-04-23T08:41:41;98975.88;;;16.84;26.65
42603;BME280;28233;55.748;48.752;2023-04-23T08:43:55;98977.91;;;16.87;26.69
42603;BME280;28233;55.748;48.752;2023-04-23T08:46:03;98976.44;;;16.97;26.69
42603;BME280;28233;55.748;48.752;2023-04-23T08:48:07;98973.19;;;16.92;26.57
42603;BME280;28233;55.748;48.752;2023-04-23T08:50:13;98964.38;;;16.86;26.84
42603;BME280;28233;55.748;48.752;2023-04-23T08:52:22;98976.31;;;16.86;26.39
42603;BME280;28233;55.748;48.752;2023-04-23T08:54:27;98982.22;;;16.85;26.58
42603;BME280;28233;55.748;48.752;2023-04-23T08:56:31;98985.16;;;16.96;26.11
42603;BME280;28233;55.748;48.752;2023-04-23T08:58:35;98968.19;;;17.04;26.32
42603;BME280;28233;55.748;48.752;2023-04-23T09:00:38;98969.03;;;17.08;26.19
42603;BME280;28233;55.748;48.752;2023-04-23T09:02:43;98979.50;;;17.22;26.25
42603;BME280;28233;55.748;48.752;2023-04-23T09:04:46;98970.47;;;17.29;25.82
42603;BME280;28233;55.748;48.752;2023-04-23T09:06:54;98968.53;;;17.37;25.72
42603;BME280;28233;55.748;48.752;2023-04-23T09:08:58;98980.91;;;17.43;25.61
42603;BME280;28233;55.748;48.752;2023-04-23T09:11:01;98977.72;;;17.41;25.42
42603;BME280;28233;55.748;48.752;2023-04-23T09:13:03;98975.75;;;17.41;25.38
42603;BME280;28233;55.748;48.752;2023-04-23T09:15:07;98973.69;;;17.35;25.55
42603;BME280;28233;55.748;48.752;2023-04-23T09:17:14;98964.47;;;17.27;25.17
42603;BME280;28233;55.748;48.752;2023-04-23T09:19:17;98978.00;;;17.32;25.64
42603;BME280;28233;55.748;48.752;2023-04-23T09:21:20;98975.75;;;17.41;24.76
42603;BME280;28233;55.748;48.752;2023-04-23T09:23:23;98973.03;;;17.48;25.14
42603;BME280;28233;55.748;48.752;2023-04-23T09:25:25;98984.63;;;17.58;25.15
42603;BME280;28233;55.748;48.752;2023-04-23T09:27:28;98984.66;;;17.61;24.72
42603;BME280;28233;55.748;48.752;2023-04-23T09:29:31;98991.09;;;17.69;24.75
42603;BME280;28233;55.748;48.752;2023-04-23T09:31:33;98985.13;;;17.67;24.62
42603;BME280;28233;55.748;48.752;2023-04-23T09:33:36;98976.38;;;17.65;24.50
42603;BME280;28233;55.748;48.752;2023-04-23T09:35:39;98978.34;;;17.64;23.85
42603;BME280;28233;55.748;48.752;2023-04-23T09:37:48;98966.53;;;17.74;24.13
42603;BME280;28233;55.748;48.752;2023-04-23T09:39:51;98970.66;;;17.88;24.41
42603;BME280;28233;55.748;48.752;2023-04-23T09:42:03;98966.78;;;18.00;24.40
42603;BME280;28233;55.748;48.752;2023-04-23T09:44:06;98979.53;;;18.04;24.72
42603;BME280;28233;55.748;48.752;2023-04-23T09:46:10;98963.94;;;17.96;24.66
42603;BME280;28233;55.748;48.752;2023-04-23T09:48:12;98965.63;;;18.04;25.07
42603;BME280;28233;55.748;48.752;2023-04-23T09:50:15;98970.50;;;18.22;25.06
42603;BME280;28233;55.748;48.752;2023-04-23T09:52:18;98965.72;;;18.22;24.53
42603;BME280;28233;55.748;48.752;2023-04-23T09:54:21;98962.63;;;18.27;24.37
42603;BME280;28233;55.748;48.752;2023-04-23T09:56:24;98968.59;;;18.33;24.46
42603;BME280;28233;55.748;48.752;2023-04-23T09:58:27;98965.47;;;18.42;24.44
42603;BME280;28233;55.748;48.752;2023-04-23T10:00:33;98984.16;;;18.45;24.17
42603;BME280;28233;55.748;48.752;2023-04-23T10:02:37;98974.22;;;18.44;23.43
42603;BME280;28233;55.748;48.752;2023-04-23T10:04:41;98967.41;;;18.34;23.70
42603;BME280;28233;55.748;48.752;2023-04-23T10:06:44;98968.09;;;18.16;23.91
42603;BME280;28233;55.748;48.752;2023-04-23T10:09:07;98966.81;;;18.07;23.86
42603;BME280;28233;55.748;48.752;2023-04-23T10:11:10;98982.25;;;18.01;23.88
42603;BME280;28233;55.748;48.752;2023-04-23T10:13:22;98971.13;;;18.01;23.30
42603;BME280;28233;55.748;48.752;2023-04-23T10:15:25;98963.59;;;18.01;23.60
42603;BME280;28233;55.748;48.752;2023-04-23T10:17:28;98968.00;;;18.06;23.84
42603;BME280;28233;55.748;48.752;2023-04-23T10:19:32;98970.03;;;18.09;23.64
42603;BME280;28233;55.748;48.752;2023-04-23T10:21:35;98968.44;;;18.11;23.85
42603;BME280;28233;55.748;48.752;2023-04-23T10:23:56;98977.97;;;18.10;24.54
42603;BME280;28233;55.748;48.752;2023-04-23T10:26:00;98981.25;;;18.27;24.07
42603;BME280;28233;55.748;48.752;2023-04-23T10:28:05;98965.03;;;18.36;23.57
42603;BME280;28233;55.748;48.752;2023-04-23T10:30:10;98977.31;;;18.31;23.43
42603;BME280;28233;55.748;48.752;2023-04-23T10:32:14;98966.59;;;18.33;23.77
42603;BME280;28233;55.748;48.752;2023-04-23T10:34:18;98973.47;;;18.50;23.61
42603;BME280;28233;55.748;48.752;2023-04-23T10:36:22;98965.16;;;18.54;23.32
42603;BME280;28233;55.748;48.752;2023-04-23T10:38:27;98965.94;;;18.51;23.50
42603;BME280;28233;55.748;48.752;2023-04-23T10:40:31;98965.53;;;18.49;23.15
42603;BME280;28233;55.748;48.752;2023-04-23T10:42:35;98966.31;;;18.49;23.50
42603;BME280;28233;55.748;48.752;2023-04-23T10:44:41;98967.59;;;18.63;22.95
42603;BME280;28233;55.748;48.752;2023-04-23T10:46:54;98971.91;;;18.56;23.30
42603;BME280;28233;55.748;48.752;2023-04-23T10:49:12;98974.72;;;18.60;23.69
42603;BME280;28233;55.748;48.752;2023-04-23T10:51:18;98982.28;;;18.67;23.09